Terminal Aerodrome Forecast
Issued by NWS Upton, NY

Home | Current Version | Previous Version | Text Only | Print | Product List | Glossary On
Versions: 1 2 3 4 5 6 7 8 9 10 11 12 13 14 15 16 17 18 19 20 21 22 23 24 25 26 27 28 29 30 31 32 33
998
FTUS41 KOKX 281302 AAA
TAFLGA
TAF AMD
KLGA 281302Z 2813/2912 06006KT 4SM BR OVC006
      TEMPO 2814/2815 3SM SHRA OVC006
     FM281500 08006KT 5SM BR OVC008
     FM281900 08004KT 3SM -RA BR OVC010
     FM290000 04004KT 3SM -RA BR OVC008
     FM290500 02005KT 5SM BR OVC015
     FM290800 34009KT P6SM BKN020=

USA.gov is the U.S. government's official web portal to all federal, state and local government web resources and services.